Time;durP1;ratioP1;P1;durP2;ratioP2;P2;SDS_P1;SDS_P2;PMS_P1;PMS_P2;Temp;Humidity;BMP_temperature;BMP_pressure;BME280_temperature;BME280_humidity;BME280_pressure;Samples;Min_cycle;Max_cycle;Signal;HPM_P1;HPM_P2
2021/07/06 00:00:44;20028.00;0.07;35.32;0.00;0.00;0.62;;;;;21.90;1.00;;;;;;2268435;61;2010;-90
2021/07/06 00:03:11;16709.00;0.06;29.57;0.00;0.00;0.62;;;;;21.60;1.00;;;;;;2268143;61;935;-89
2021/07/06 00:05:38;0.00;0.00;0.62;0.00;0.00;0.62;;;;;21.50;1.00;;;;;;2268376;61;1024;-89
2021/07/06 00:08:06;0.00;0.00;0.62;0.00;0.00;0.62;;;;;21.40;1.00;;;;;;2268516;61;923;-90
2021/07/06 00:10:35;40504.00;0.14;70.76;0.00;0.00;0.62;;;;;21.10;1.00;;;;;;2268455;61;1402;-91
2021/07/06 00:13:04;0.00;0.00;0.62;0.00;0.00;0.62;;;;;21.20;1.00;;;;;;2268436;61;1073;-89
2021/07/06 00:15:34;0.00;0.00;0.62;0.00;0.00;0.62;;;;;21.60;1.00;;;;;;2268535;61;970;-90
2021/07/06 00:18:01;0.00;0.00;0.62;0.00;0.00;0.62;;;;;21.60;1.00;;;;;;2268505;61;1172;-89
2021/07/06 00:20:29;0.00;0.00;0.62;0.00;0.00;0.62;;;;;21.70;1.00;;;;;;2268447;61;2000;-90
2021/07/06 00:22:56;0.00;0.00;0.62;0.00;0.00;0.62;;;;;21.30;1.00;;;;;;2268503;61;1040;-90
2021/07/06 00:25:24;35022.00;0.12;61.27;0.00;0.00;0.62;;;;;21.40;1.00;;;;;;2268493;61;1007;-89
2021/07/06 00:27:51;0.00;0.00;0.62;0.00;0.00;0.62;;;;;21.50;1.00;;;;;;2268503;61;927;-88
2021/07/06 00:30:20;220220.00;0.73;380.72;39383.00;0.13;68.82;;;;;21.20;1.00;;;;;;2268221;61;1334;-89
2021/07/06 00:32:48;67070.00;0.22;116.70;0.00;0.00;0.62;;;;;21.40;1.00;;;;;;2268457;61;1139;-89
2021/07/06 00:35:14;216393.00;0.72;374.14;53283.00;0.18;92.86;;;;;21.40;1.00;;;;;;2268422;61;1037;-89
2021/07/06 00:37:41;37030.00;0.12;64.75;0.00;0.00;0.62;;;;;21.20;1.00;;;;;;2268435;61;1127;-87
2021/07/06 00:40:10;0.00;0.00;0.62;0.00;0.00;0.62;;;;;21.30;1.00;;;;;;2268396;61;2000;-89
2021/07/06 00:42:41;0.00;0.00;0.62;0.00;0.00;0.62;;;;;21.20;1.00;;;;;;2259876;61;1114;-87
2021/07/06 00:45:09;187081.00;0.62;323.68;42317.00;0.14;73.90;;;;;21.10;1.00;;;;;;2259975;61;1074;-87
2021/07/06 00:47:39;308509.00;1.03;532.55;32204.00;0.11;56.40;;;;;21.20;1.00;;;;;;2253340;61;1040;-88
2021/07/06 00:50:10;50419.00;0.17;87.91;0.00;0.00;0.62;;;;;21.20;1.00;;;;;;2251884;61;1286;-88
2021/07/06 00:52:37;174862.00;0.58;302.64;0.00;0.00;0.62;;;;;21.30;1.00;;;;;;2251979;61;1094;-89
2021/07/06 00:55:04;58166.00;0.19;101.31;0.00;0.00;0.62;;;;;21.40;1.00;;;;;;2251725;61;1111;-88
2021/07/06 00:57:32;0.00;0.00;0.62;0.00;0.00;0.62;;;;;21.40;1.00;;;;;;2251204;61;1598;-89
2021/07/06 01:00:00;224636.00;0.75;388.32;6402.00;0.02;11.72;;;;;21.10;1.00;;;;;;2251745;61;1299;-90
2021/07/06 01:02:27;0.00;0.00;0.62;0.00;0.00;0.62;;;;;21.00;1.00;;;;;;2252559;61;2001;-89
2021/07/06 01:04:56;57259.00;0.19;99.74;0.00;0.00;0.62;;;;;21.00;1.00;;;;;;2252578;61;1674;-89
2021/07/06 01:07:23;192565.00;0.64;333.12;8783.00;0.03;15.84;;;;;21.10;1.00;;;;;;2258956;61;1040;-89
2021/07/06 01:09:51;76602.00;0.26;133.17;0.00;0.00;0.62;;;;;21.00;1.00;;;;;;2269053;61;1397;-88
2021/07/06 01:12:17;43268.00;0.14;75.54;0.00;0.00;0.62;;;;;21.10;1.00;;;;;;2269078;61;1019;-87
2021/07/06 01:14:45;0.00;0.00;0.62;0.00;0.00;0.62;;;;;21.30;1.00;;;;;;2268584;61;1705;-87
2021/07/06 01:17:13;32055.00;0.11;56.14;0.00;0.00;0.62;;;;;21.10;1.00;;;;;;2269055;61;1076;-88
2021/07/06 01:19:41;90715.00;0.30;157.54;0.00;0.00;0.62;;;;;21.20;1.00;;;;;;2269029;61;1281;-90
2021/07/06 01:22:09;0.00;0.00;0.62;0.00;0.00;0.62;;;;;21.30;1.00;;;;;;2268989;61;1924;-88
2021/07/06 01:24:38;0.00;0.00;0.62;0.00;0.00;0.62;;;;;21.20;1.00;;;;;;2269039;61;927;-88
2021/07/06 01:27:05;70106.00;0.23;121.94;0.00;0.00;0.62;;;;;20.90;1.00;;;;;;2269001;61;1137;-88
2021/07/06 01:29:33;18338.00;0.06;32.39;0.00;0.00;0.62;;;;;21.30;1.00;;;;;;2268968;61;1326;-89
2021/07/06 01:32:00;10205.00;0.03;18.30;0.00;0.00;0.62;;;;;21.50;1.00;;;;;;2268994;61;1123;-89
2021/07/06 01:34:27;209064.00;0.70;361.52;53880.00;0.18;93.90;;;;;21.50;1.00;;;;;;2268955;61;1577;-89
2021/07/06 01:36:54;36405.00;0.12;63.67;0.00;0.00;0.62;;;;;21.20;1.00;;;;;;2268954;61;1068;-89
2021/07/06 01:39:23;24063.00;0.08;42.31;0.00;0.00;0.62;;;;;21.10;1.00;;;;;;2268926;61;1293;-88
2021/07/06 01:41:50;140299.00;0.47;243.09;19854.00;0.07;35.02;;;;;20.50;1.00;;;;;;2268929;61;2006;-88
2021/07/06 01:44:22;196347.00;0.65;339.64;28401.00;0.09;49.82;;;;;20.60;1.00;;;;;;2268935;61;1103;-89
2021/07/06 01:46:49;16511.00;0.06;29.23;0.00;0.00;0.62;;;;;20.60;1.00;;;;;;2268971;61;1022;-88
2021/07/06 01:49:17;68117.00;0.23;118.51;0.00;0.00;0.62;;;;;20.80;1.00;;;;;;2268883;61;1391;-89
2021/07/06 01:51:44;14136.00;0.05;25.11;0.00;0.00;0.62;;;;;21.00;1.00;;;;;;2268876;61;1154;-89
2021/07/06 01:54:12;0.00;0.00;0.62;0.00;0.00;0.62;;;;;20.90;1.00;;;;;;2268794;61;1036;-89
2021/07/06 01:56:41;34114.00;0.11;59.70;0.00;0.00;0.62;;;;;20.80;1.00;;;;;;2264389;61;983;-88
2021/07/06 01:59:09;113773.00;0.38;197.34;12747.00;0.04;22.71;;;;;20.30;1.00;;;;;;2264269;61;1401;-89
2021/07/06 02:01:37;166972.00;0.56;289.05;0.00;0.00;0.62;;;;;20.30;1.00;;;;;;2264412;61;1924;-89
2021/07/06 02:04:04;0.00;0.00;0.62;0.00;0.00;0.62;;;;;20.40;1.30;;;;;;2264419;61;1115;-88
2021/07/06 02:06:32;62654.00;0.21;109.06;0.00;0.00;0.62;;;;;20.70;1.00;;;;;;2264450;61;994;-88
2021/07/06 02:08:59;0.00;0.00;0.62;0.00;0.00;0.62;;;;;20.60;1.00;;;;;;2256314;61;1398;-88
2021/07/06 02:11:26;340397.00;1.13;587.36;93881.00;0.31;163.01;;;;;20.70;1.00;;;;;;2256222;61;1727;-88
2021/07/06 02:13:56;81381.00;0.27;141.42;0.00;0.00;0.62;;;;;20.70;1.00;;;;;;2256873;61;1159;-88
2021/07/06 02:16:23;16062.00;0.05;28.45;0.00;0.00;0.62;;;;;20.80;1.00;;;;;;2257012;61;998;-89
2021/07/06 02:18:50;0.00;0.00;0.62;0.00;0.00;0.62;;;;;20.90;1.00;;;;;;2259986;61;1295;-88
2021/07/06 02:21:17;41358.00;0.14;72.24;0.00;0.00;0.62;;;;;21.00;1.00;;;;;;2260275;61;2018;-90
2021/07/06 02:23:46;40718.00;0.14;71.13;0.00;0.00;0.62;;;;;21.00;1.00;;;;;;2260275;61;996;-89
2021/07/06 02:26:13;41337.00;0.14;72.20;0.00;0.00;0.62;;;;;20.70;1.00;;;;;;2260877;61;1239;-88
2021/07/06 02:28:40;0.00;0.00;0.62;0.00;0.00;0.62;;;;;20.90;1.00;;;;;;2268784;61;1401;-89
2021/07/06 02:31:09;0.00;0.00;0.62;0.00;0.00;0.62;;;;;20.90;1.00;;;;;;2265059;61;1033;-88
2021/07/06 02:33:36;0.00;0.00;0.62;0.00;0.00;0.62;;;;;20.70;1.00;;;;;;2268812;61;1013;-87
2021/07/06 02:36:05;41234.00;0.14;72.02;0.00;0.00;0.62;;;;;20.80;1.00;;;;;;2268795;61;1146;-89
2021/07/06 02:38:32;26692.00;0.09;46.86;0.00;0.00;0.62;;;;;20.90;1.00;;;;;;2268711;61;1281;-88
2021/07/06 02:41:00;0.00;0.00;0.62;0.00;0.00;0.62;;;;;20.70;1.00;;;;;;2268750;61;1922;-89
2021/07/06 02:43:27;0.00;0.00;0.62;0.00;0.00;0.62;;;;;20.60;1.00;;;;;;2268739;61;1112;-89
2021/07/06 02:45:54;0.00;0.00;0.62;0.00;0.00;0.62;;;;;20.50;1.00;;;;;;2268751;61;1087;-89
2021/07/06 02:48:22;341347.00;1.14;588.99;128292.00;0.43;222.38;;;;;20.40;1.00;;;;;;2268703;61;1300;-89
2021/07/06 02:50:49;0.00;0.00;0.62;0.00;0.00;0.62;;;;;20.60;1.00;;;;;;2268682;61;1111;-89
2021/07/06 02:53:16;32661.00;0.11;57.19;0.00;0.00;0.62;;;;;20.70;1.00;;;;;;2268616;61;1030;-88
2021/07/06 02:55:43;110146.00;0.37;191.08;0.00;0.00;0.62;;;;;20.80;1.00;;;;;;2268740;61;933;-88
2021/07/06 02:58:11;0.00;0.00;0.62;0.00;0.00;0.62;;;;;20.90;1.00;;;;;;2268716;61;1037;-89
2021/07/06 03:00:38;7476.00;0.02;13.58;0.00;0.00;0.62;;;;;21.00;1.00;;;;;;2268674;61;1274;-89
2021/07/06 03:03:07;244203.00;0.81;421.98;42677.00;0.14;74.52;;;;;21.00;1.00;;;;;;2268643;61;1926;-90
2021/07/06 03:05:37;67491.00;0.22;117.42;0.00;0.00;0.62;;;;;20.90;1.00;;;;;;2268589;61;1686;-88
2021/07/06 03:08:06;8600.00;0.03;15.52;0.00;0.00;0.62;;;;;20.80;1.00;;;;;;2268688;61;1048;-88
2021/07/06 03:10:36;250102.00;0.83;432.13;0.00;0.00;0.62;;;;;20.50;1.00;;;;;;2268623;61;1666;-90
2021/07/06 03:13:04;0.00;0.00;0.62;0.00;0.00;0.62;;;;;20.60;1.00;;;;;;2268655;61;1111;-89
2021/07/06 03:15:32;0.00;0.00;0.62;0.00;0.00;0.62;;;;;20.80;1.00;;;;;;2268661;61;929;-89
2021/07/06 03:18:00;92975.00;0.31;161.44;0.00;0.00;0.62;;;;;20.70;1.00;;;;;;2268598;61;1627;-87
2021/07/06 03:20:28;0.00;0.00;0.62;0.00;0.00;0.62;;;;;20.60;1.00;;;;;;2268622;61;1295;-88
2021/07/06 03:22:57;19084.00;0.06;33.68;0.00;0.00;0.62;;;;;20.20;1.00;;;;;;2268609;61;1919;-89
2021/07/06 03:25:26;204629.00;0.68;353.89;24884.00;0.08;43.73;;;;;20.30;1.60;;;;;;2268595;61;1090;-89
2021/07/06 03:27:54;0.00;0.00;0.62;0.00;0.00;0.62;;;;;20.50;1.50;;;;;;2268640;61;930;-89
2021/07/06 03:30:22;64060.00;0.21;111.49;0.00;0.00;0.62;;;;;20.70;1.00;;;;;;2268506;61;1683;-88
2021/07/06 03:32:51;0.00;0.00;0.62;0.00;0.00;0.62;;;;;20.40;1.00;;;;;;2261556;61;1035;-88
2021/07/06 03:35:19;0.00;0.00;0.62;0.00;0.00;0.62;;;;;20.50;1.70;;;;;;2264084;61;950;-89
2021/07/06 03:37:46;112566.00;0.38;195.26;0.00;0.00;0.62;;;;;20.50;1.00;;;;;;2264151;61;1052;-89
2021/07/06 03:40:15;154093.00;0.51;266.86;0.00;0.00;0.62;;;;;20.50;1.00;;;;;;2254157;61;1472;-89
2021/07/06 03:42:43;0.00;0.00;0.62;0.00;0.00;0.62;;;;;20.40;1.00;;;;;;2264078;61;2000;-88
2021/07/06 03:45:12;0.00;0.00;0.62;0.00;0.00;0.62;;;;;20.40;1.20;;;;;;2264126;61;1057;-88
2021/07/06 03:47:40;79936.00;0.27;138.93;0.00;0.00;0.62;;;;;20.80;1.00;;;;;;2260736;61;1018;-89
2021/07/06 03:50:10;0.00;0.00;0.62;0.00;0.00;0.62;;;;;20.90;1.00;;;;;;2263993;61;1391;-88
2021/07/06 03:52:37;319872.00;1.07;552.08;25884.00;0.09;45.46;;;;;21.10;1.00;;;;;;2264843;61;1033;-87
2021/07/06 03:55:05;73623.00;0.25;128.02;0.00;0.00;0.62;;;;;21.20;1.00;;;;;;2264729;61;1079;-86
2021/07/06 03:57:33;123094.00;0.41;213.42;0.00;0.00;0.62;;;;;21.20;1.00;;;;;;2261446;61;1067;-86
2021/07/06 04:00:03;0.00;0.00;0.62;0.00;0.00;0.62;;;;;21.20;1.00;;;;;;2268465;61;1371;-87
2021/07/06 04:02:30;127153.00;0.42;220.42;0.00;0.00;0.62;;;;;21.20;1.00;;;;;;2261423;61;2001;-89
2021/07/06 04:04:57;0.00;0.00;0.62;0.00;0.00;0.62;;;;;21.40;1.00;;;;;;2261498;61;986;-87
2021/07/06 04:07:24;145809.00;0.49;252.58;38466.00;0.13;67.23;;;;;21.70;1.00;;;;;;2268495;61;920;-87
2021/07/06 04:09:51;19862.00;0.07;35.03;0.00;0.00;0.62;;;;;21.60;1.00;;;;;;2258123;61;1395;-87
2021/07/06 04:12:18;116544.00;0.39;202.12;0.00;0.00;0.62;;;;;21.50;1.00;;;;;;2258155;61;978;-86
2021/07/06 04:14:46;0.00;0.00;0.62;0.00;0.00;0.62;;;;;21.30;1.00;;;;;;2255939;61;1000;-88
2021/07/06 04:17:13;384621.00;1.28;663.37;104693.00;0.35;181.67;;;;;20.50;1.00;;;;;;2255988;61;1040;-87
2021/07/06 04:19:40;0.00;0.00;0.62;0.00;0.00;0.62;;;;;20.50;1.00;;;;;;2251872;61;1384;-87
2021/07/06 04:22:07;31468.00;0.10;55.12;0.00;0.00;0.62;;;;;20.70;1.00;;;;;;2245342;61;1912;-88
2021/07/06 04:24:34;141485.00;0.47;245.13;0.00;0.00;0.62;;;;;20.60;1.00;;;;;;2240073;62;982;-88
2021/07/06 04:27:02;207170.00;0.69;358.26;0.00;0.00;0.62;;;;;20.60;1.00;;;;;;2233569;62;1065;-87
2021/07/06 04:29:29;108232.00;0.36;187.78;20351.00;0.07;35.88;;;;;20.70;1.00;;;;;;2240069;62;1471;-87
2021/07/06 04:31:57;126557.00;0.42;219.39;0.00;0.00;0.62;;;;;20.50;1.00;;;;;;2234949;61;963;-86
2021/07/06 04:34:25;122699.00;0.41;212.74;56426.00;0.19;98.30;;;;;20.50;1.00;;;;;;2252007;61;922;-87
2021/07/06 04:36:52;83548.00;0.28;145.17;0.00;0.00;0.62;;;;;20.90;1.00;;;;;;2252962;61;1065;-89
2021/07/06 04:39:19;0.00;0.00;0.62;0.00;0.00;0.62;;;;;21.20;1.00;;;;;;2256646;61;1250;-89
2021/07/06 04:41:46;38353.00;0.13;67.04;0.00;0.00;0.62;;;;;21.30;1.00;;;;;;2258143;61;1914;-88
2021/07/06 04:44:14;252729.00;0.84;436.64;40365.00;0.13;70.52;;;;;21.40;1.00;;;;;;2262098;61;934;-88
2021/07/06 04:46:42;0.00;0.00;0.62;0.00;0.00;0.62;;;;;21.30;1.00;;;;;;2269113;61;946;-88
2021/07/06 04:49:10;168741.00;0.56;292.10;0.00;0.00;0.62;;;;;21.40;1.00;;;;;;2260487;61;1329;-89
2021/07/06 04:51:38;36487.00;0.12;63.81;0.00;0.00;0.62;;;;;21.30;1.00;;;;;;2253939;61;938;-89
2021/07/06 04:54:05;112244.00;0.37;194.70;0.00;0.00;0.62;;;;;21.40;1.00;;;;;;2253924;61;1006;-86
2021/07/06 04:56:32;66456.00;0.22;115.64;0.00;0.00;0.62;;;;;21.00;1.30;;;;;;2250689;61;1035;-89
2021/07/06 04:58:58;73722.00;0.25;128.19;0.00;0.00;0.62;;;;;21.30;1.50;;;;;;2260559;61;1416;-88
2021/07/06 05:01:25;265225.00;0.88;458.13;65515.00;0.22;114.01;;;;;21.60;1.00;;;;;;2252400;61;1928;-89
2021/07/06 05:03:54;242220.00;0.81;418.57;75298.00;0.25;130.91;;;;;22.00;1.00;;;;;;2249224;61;983;-90
2021/07/06 05:06:22;306090.00;1.02;528.39;90599.00;0.30;157.34;;;;;22.20;1.00;;;;;;2250112;61;968;-88
2021/07/06 05:08:50;4765.00;0.02;8.88;0.00;0.00;0.62;;;;;22.50;1.00;;;;;;2253841;61;1448;-89
2021/07/06 05:11:17;114384.00;0.38;198.39;39782.00;0.13;69.51;;;;;22.70;1.00;;;;;;2253787;61;972;-88
2021/07/06 05:13:44;171037.00;0.57;296.05;0.00;0.00;0.62;;;;;22.80;1.00;;;;;;2253847;61;982;-88
2021/07/06 05:16:12;0.00;0.00;0.62;0.00;0.00;0.62;;;;;23.00;1.00;;;;;;2260408;61;951;-88
2021/07/06 05:21:07;402699.00;1.34;694.45;28863.00;0.10;50.62;;;;;23.30;1.00;;;;;;2270340;61;1399;-89
2021/07/06 05:23:36;95668.00;0.32;166.09;0.00;0.00;0.62;;;;;23.40;1.00;;;;;;2268990;61;1991;-89
2021/07/06 05:26:03;125301.00;0.42;217.23;0.00;0.00;0.62;;;;;23.40;1.00;;;;;;2268783;61;1032;-88
2021/07/06 05:28:29;107252.00;0.36;186.09;0.00;0.00;0.62;;;;;23.50;1.00;;;;;;2258685;61;1357;-89
2021/07/06 05:30:57;21639.00;0.07;38.11;0.00;0.00;0.62;;;;;23.20;1.00;;;;;;2268973;61;911;-89
2021/07/06 05:33:23;133289.00;0.44;231.00;0.00;0.00;0.62;;;;;23.20;1.00;;;;;;2261893;61;981;-88
2021/07/06 05:35:50;61184.00;0.20;106.52;0.00;0.00;0.62;;;;;23.40;1.00;;;;;;2268958;61;1048;-89
2021/07/06 05:38:18;10649.00;0.04;19.07;0.00;0.00;0.62;;;;;23.70;1.00;;;;;;2258622;61;972;-89
2021/07/06 05:40:52;0.00;0.00;0.62;0.00;0.00;0.62;;;;;23.70;1.00;;;;;;2260399;61;989;-89
2021/07/06 05:43:19;220912.00;0.74;381.91;81796.00;0.27;142.14;;;;;23.70;1.00;;;;;;2252193;61;2008;-89
2021/07/06 05:45:46;27105.00;0.09;47.57;0.00;0.00;0.62;;;;;23.90;1.00;;;;;;2249078;61;959;-89
2021/07/06 05:48:13;0.00;0.00;0.62;0.00;0.00;0.62;;;;;25.10;1.00;;;;;;2248988;61;959;-86
2021/07/06 05:50:39;161122.00;0.54;278.97;0.00;0.00;0.62;;;;;27.30;1.00;;;;;;2252358;61;1394;-89
2021/07/06 05:53:08;456868.00;1.52;787.60;99913.00;0.33;173.42;;;;;28.20;1.00;;;;;;2252367;61;1044;-89
2021/07/06 05:55:35;0.00;0.00;0.62;0.00;0.00;0.62;;;;;28.70;1.00;;;;;;2244392;61;1066;-89
2021/07/06 05:58:04;97439.00;0.32;169.15;0.00;0.00;0.62;;;;;29.90;1.00;;;;;;2245729;61;992;-88
2021/07/06 06:00:31;159058.00;0.53;275.42;0.00;0.00;0.62;;;;;30.20;1.00;;;;;;2241378;61;1387;-89
2021/07/06 06:02:59;0.00;0.00;0.62;0.00;0.00;0.62;;;;;30.30;1.00;;;;;;2244305;61;1997;-89
2021/07/06 06:05:26;77027.00;0.26;133.90;0.00;0.00;0.62;;;;;30.90;1.00;;;;;;2244509;61;1028;-90
2021/07/06 06:07:53;302402.00;1.01;522.05;0.00;0.00;0.62;;;;;30.60;1.00;;;;;;2244286;61;1616;-89
2021/07/06 06:10:20;158812.00;0.53;274.99;0.00;0.00;0.62;;;;;31.50;1.00;;;;;;2244342;61;1473;-91
2021/07/06 06:12:48;244279.00;0.81;422.11;0.00;0.00;0.62;;;;;32.40;1.00;;;;;;2245486;61;1029;-91
2021/07/06 06:15:16;129402.00;0.43;224.30;0.00;0.00;0.62;;;;;32.90;1.00;;;;;;2249024;61;1031;-88
2021/07/06 06:17:43;149565.00;0.50;259.06;760.00;0.00;1.94;;;;;33.80;1.00;;;;;;2253300;61;1021;-88
2021/07/06 06:20:11;74517.00;0.25;129.57;0.00;0.00;0.62;;;;;34.50;1.00;;;;;;2253209;61;1392;-87
2021/07/06 06:22:38;60528.00;0.20;105.39;0.00;0.00;0.62;;;;;34.60;1.00;;;;;;2260237;61;1929;-87
2021/07/06 06:25:06;10283.00;0.03;18.44;0.00;0.00;0.62;;;;;35.30;1.00;;;;;;2260255;61;1015;-87
2021/07/06 06:27:33;392668.00;1.31;677.20;163180.00;0.54;282.52;;;;;35.60;1.00;;;;;;2256237;61;1057;-87
2021/07/06 06:30:00;122133.00;0.41;211.76;0.00;0.00;0.62;;;;;35.60;1.00;;;;;;2246311;61;1353;-89
2021/07/06 06:32:28;400281.00;1.33;690.29;86446.00;0.29;150.17;;;;;36.60;1.00;;;;;;2252899;61;947;-89
2021/07/06 06:34:55;5799.00;0.02;10.67;0.00;0.00;0.62;;;;;36.70;1.00;;;;;;2256242;61;986;-90
2021/07/06 06:37:22;105077.00;0.35;182.33;0.00;0.00;0.62;;;;;36.60;1.00;;;;;;2257351;61;1024;-90
2021/07/06 06:39:49;108300.00;0.36;187.90;0.00;0.00;0.62;;;;;37.30;1.00;;;;;;2264264;61;1614;-90
2021/07/06 06:42:16;0.00;0.00;0.62;0.00;0.00;0.62;;;;;37.60;1.00;;;;;;2264191;61;1915;-91
2021/07/06 06:44:43;156650.00;0.52;271.27;0.00;0.00;0.62;;;;;38.00;1.00;;;;;;2264735;61;1750;-93
2021/07/06 06:47:10;152291.00;0.51;263.76;0.00;0.00;0.62;;;;;38.20;1.00;;;;;;2268758;61;1060;-90
2021/07/06 06:49:38;0.00;0.00;0.62;0.00;0.00;0.62;;;;;37.30;1.00;;;;;;2268773;61;1414;-89
2021/07/06 06:52:06;39988.00;0.13;69.87;0.00;0.00;0.62;;;;;37.60;1.00;;;;;;2258484;61;994;-90
2021/07/06 06:54:34;16061.00;0.05;28.45;0.00;0.00;0.62;;;;;37.40;1.00;;;;;;2256286;61;995;-88
2021/07/06 06:57:01;91946.00;0.31;159.67;27703.00;0.09;48.61;;;;;37.90;1.00;;;;;;2256262;61;1079;-90
2021/07/06 06:59:28;115234.00;0.38;199.86;0.00;0.00;0.62;;;;;37.80;1.00;;;;;;2255956;61;1706;-86
2021/07/06 07:04:38;107215.00;0.36;186.02;40444.00;0.13;70.66;;;;;33.90;1.00;;;;;;2256171;61;1027;-90
2021/07/06 07:07:05;121835.00;0.41;211.25;0.00;0.00;0.62;;;;;32.40;1.00;;;;;;2256209;61;1048;-90
2021/07/06 07:09:32;81409.00;0.27;141.47;0.00;0.00;0.62;;;;;31.70;1.00;;;;;;2256124;61;1605;-90
2021/07/06 07:11:59;95603.00;0.32;165.98;0.00;0.00;0.62;;;;;32.60;1.00;;;;;;2258086;61;1028;-88
2021/07/06 07:14:26;75.00;0.00;0.75;0.00;0.00;0.62;;;;;33.70;1.00;;;;;;2260086;61;1112;-87
2021/07/06 07:16:53;181154.00;0.60;313.48;20012.00;0.07;35.29;;;;;35.00;1.00;;;;;;2253509;61;1004;-89
2021/07/06 07:19:20;125466.00;0.42;217.51;0.00;0.00;0.62;;;;;36.30;1.00;;;;;;2260067;61;1360;-89
2021/07/06 07:21:48;9295.00;0.03;16.73;0.00;0.00;0.62;;;;;37.60;1.00;;;;;;2260119;61;943;-90
2021/07/06 07:24:16;410133.00;1.37;707.23;77014.00;0.26;133.88;;;;;37.30;1.00;;;;;;2260051;61;1932;-91
2021/07/06 07:26:43;369450.00;1.23;637.29;81281.00;0.27;141.25;;;;;37.50;1.00;;;;;;2260136;61;1046;-89
2021/07/06 07:29:10;36972.00;0.12;64.65;0.00;0.00;0.62;;;;;36.20;1.00;;;;;;2260068;61;1327;-88
2021/07/06 07:31:37;119324.00;0.40;206.92;0.00;0.00;0.62;;;;;36.20;1.00;;;;;;2260586;61;1166;-88
2021/07/06 07:34:05;6672.00;0.02;12.18;0.00;0.00;0.62;;;;;36.00;1.00;;;;;;2264184;61;984;-89
2021/07/06 07:36:32;0.00;0.00;0.62;0.00;0.00;0.62;;;;;36.00;1.00;;;;;;2268228;61;1044;-89
2021/07/06 07:39:00;27841.00;0.09;48.85;0.00;0.00;0.62;;;;;35.70;1.00;;;;;;2268570;61;1448;-88
2021/07/06 07:41:27;211462.00;0.70;365.65;0.00;0.00;0.62;;;;;35.30;1.00;;;;;;2268589;61;1005;-88
2021/07/06 07:43:54;88657.00;0.30;153.99;0.00;0.00;0.62;;;;;34.60;1.00;;;;;;2268490;61;1979;-88
2021/07/06 07:46:22;9592.00;0.03;17.24;0.00;0.00;0.62;;;;;34.10;1.00;;;;;;2256036;61;1001;-88
2021/07/06 07:48:49;5093.00;0.02;9.45;0.00;0.00;0.62;;;;;35.20;1.00;;;;;;2256077;61;1302;-89
2021/07/06 07:51:16;0.00;0.00;0.62;0.00;0.00;0.62;;;;;36.00;1.00;;;;;;2248110;61;1024;-89
2021/07/06 07:53:44;0.00;0.00;0.62;0.00;0.00;0.62;;;;;36.50;1.00;;;;;;2248052;61;1008;-89
2021/07/06 07:56:13;52954.00;0.18;92.29;0.00;0.00;0.62;;;;;36.20;1.00;;;;;;2244014;61;947;-88
2021/07/06 07:58:40;83088.00;0.28;144.37;0.00;0.00;0.62;;;;;35.90;1.00;;;;;;2244054;61;1406;-88
2021/07/06 08:01:07;27100.00;0.09;47.56;0.00;0.00;0.62;;;;;34.30;1.00;;;;;;2244007;61;1004;-90
2021/07/06 08:03:33;166236.00;0.55;287.78;24106.00;0.08;42.38;;;;;32.90;1.00;;;;;;2245480;61;2013;-90
2021/07/06 08:06:01;117239.00;0.39;203.32;0.00;0.00;0.62;;;;;32.50;1.00;;;;;;2255920;61;1659;-90
2021/07/06 08:08:28;36917.00;0.12;64.55;0.00;0.00;0.62;;;;;32.60;1.00;;;;;;2255445;61;1362;-88
2021/07/06 08:10:58;244787.00;0.82;422.99;0.00;0.00;0.62;;;;;32.50;1.00;;;;;;2252493;61;1065;-90
2021/07/06 08:13:28;30201.00;0.10;52.93;0.00;0.00;0.62;;;;;32.80;1.00;;;;;;2257080;61;1109;-91
2021/07/06 08:15:55;115934.00;0.39;201.07;0.00;0.00;0.62;;;;;32.90;1.00;;;;;;2264000;61;999;-88
2021/07/06 08:18:22;85192.00;0.28;148.00;0.00;0.00;0.62;;;;;33.90;1.00;;;;;;2264519;61;1585;-88
2021/07/06 08:20:49;51466.00;0.17;89.72;0.00;0.00;0.62;;;;;35.20;1.00;;;;;;2268454;61;1026;-88
2021/07/06 08:23:17;53694.00;0.18;93.57;0.00;0.00;0.62;;;;;35.20;1.00;;;;;;2268322;61;1992;-88
2021/07/06 08:25:44;270816.00;0.90;467.75;89106.00;0.30;154.76;;;;;34.90;1.00;;;;;;2268430;61;1004;-89
2021/07/06 08:28:12;121203.00;0.40;210.16;0.00;0.00;0.62;;;;;34.60;1.00;;;;;;2268401;61;1272;-89
2021/07/06 08:30:40;200520.00;0.67;346.82;0.00;0.00;0.62;;;;;35.40;1.00;;;;;;2268292;61;1571;-89
2021/07/06 08:33:08;88896.00;0.30;154.40;0.00;0.00;0.62;;;;;36.70;1.00;;;;;;2268374;61;1771;-88
2021/07/06 08:35:35;114740.00;0.38;199.01;0.00;0.00;0.62;;;;;37.10;1.00;;;;;;2268432;61;1005;-90
2021/07/06 08:38:01;163497.00;0.54;283.06;0.00;0.00;0.62;;;;;37.80;1.00;;;;;;2268420;61;1009;-90
2021/07/06 08:40:29;126700.00;0.42;219.64;0.00;0.00;0.62;;;;;37.20;1.00;;;;;;2268341;61;1385;-89
2021/07/06 08:42:59;104523.00;0.35;181.38;0.00;0.00;0.62;;;;;36.60;1.00;;;;;;2268399;61;1994;-90
2021/07/06 08:45:27;187494.00;0.62;324.39;34620.00;0.12;60.58;;;;;36.80;1.00;;;;;;2268340;61;1757;-89
2021/07/06 08:47:56;49572.00;0.17;86.45;0.00;0.00;0.62;;;;;35.90;1.00;;;;;;2268372;61;1071;-89
2021/07/06 08:50:24;124244.00;0.41;215.40;0.00;0.00;0.62;;;;;35.80;1.00;;;;;;2268371;61;1260;-89
2021/07/06 08:52:52;110682.00;0.37;192.01;0.00;0.00;0.62;;;;;35.50;1.00;;;;;;2268383;61;1656;-89
2021/07/06 08:55:21;135110.00;0.45;234.14;0.00;0.00;0.62;;;;;35.60;1.00;;;;;;2268379;61;1593;-90
2021/07/06 08:57:51;48873.00;0.16;85.24;0.00;0.00;0.62;;;;;35.90;1.00;;;;;;2268345;61;934;-89
2021/07/06 09:00:19;0.00;0.00;0.62;0.00;0.00;0.62;;;;;35.50;1.00;;;;;;2268344;61;1397;-89
2021/07/06 09:02:59;115382.00;0.38;200.12;0.00;0.00;0.62;;;;;35.30;1.00;;;;;;2268337;61;1985;-89
2021/07/06 09:05:27;124391.00;0.41;215.66;0.00;0.00;0.62;;;;;35.20;1.00;;;;;;2268256;61;1610;-88
2021/07/06 09:07:54;83509.00;0.28;145.10;0.00;0.00;0.62;;;;;35.00;1.00;;;;;;2268294;61;930;-90
2021/07/06 09:10:24;16744.00;0.06;29.63;0.00;0.00;0.62;;;;;34.80;1.00;;;;;;2268231;61;1414;-89
2021/07/06 09:12:51;91726.00;0.31;159.29;0.00;0.00;0.62;;;;;35.60;1.00;;;;;;2268390;61;1022;-89
2021/07/06 09:15:24;112159.00;0.37;194.56;0.00;0.00;0.62;;;;;35.60;1.00;;;;;;2268359;61;927;-88
2021/07/06 09:18:15;2224.00;0.01;4.47;0.00;0.00;0.62;;;;;34.80;1.00;;;;;;2268276;61;1021;-89
2021/07/06 09:20:43;254878.00;0.85;440.34;62832.00;0.21;109.37;;;;;34.70;1.00;;;;;;2268290;61;1317;-89
2021/07/06 09:23:25;46933.00;0.16;81.88;0.00;0.00;0.62;;;;;34.10;1.00;;;;;;2268783;61;1924;-88
2021/07/06 09:26:06;272099.00;0.91;469.95;62091.00;0.21;108.09;;;;;33.80;1.00;;;;;;2269000;61;1148;-88
2021/07/06 09:28:34;270706.00;0.90;467.56;58540.00;0.20;101.95;;;;;34.00;1.00;;;;;;2268959;61;1458;-89
2021/07/06 09:31:29;321675.00;1.07;555.18;61115.00;0.20;106.40;;;;;33.70;1.00;;;;;;2268781;61;1133;-88
2021/07/06 09:34:03;161794.00;0.54;280.13;0.00;0.00;0.62;;;;;33.50;1.00;;;;;;2268315;61;1150;-88
2021/07/06 09:36:40;139987.00;0.47;242.55;0.00;0.00;0.62;;;;;33.60;1.00;;;;;;2268988;61;918;-87
2021/07/06 09:39:13;19784.00;0.07;34.90;0.00;0.00;0.62;;;;;33.40;1.00;;;;;;2268935;61;1436;-91
2021/07/06 09:41:42;150780.00;0.50;261.15;0.00;0.00;0.62;;;;;33.50;1.00;;;;;;2269004;61;1127;-90
2021/07/06 09:44:20;155720.00;0.52;269.66;0.00;0.00;0.62;;;;;33.80;1.00;;;;;;2268974;61;1993;-89
2021/07/06 09:46:52;286163.00;0.95;494.13;68003.00;0.23;118.31;;;;;33.60;1.00;;;;;;2268927;61;1134;-89
2021/07/06 09:49:23;107980.00;0.36;187.34;0.00;0.00;0.62;;;;;33.10;1.00;;;;;;2268937;61;1714;-91
2021/07/06 10:11:39;106103.00;0.35;184.11;0.00;0.00;0.62;;;;;32.50;1.00;;;;;;2501517;55;3645;31
2021/07/06 12:57:26;72666.00;0.24;126.37;0.00;0.00;0.62;;;;;30.40;1.00;;;;;;2271511;61;882;-90
2021/07/06 13:27:06;0.00;0.00;0.62;0.00;0.00;0.62;;;;;29.10;1.00;;;;;;2271620;61;900;-89
2021/07/06 13:46:58;89453.00;0.30;155.36;0.00;0.00;0.62;;;;;28.60;1.00;;;;;;2498228;55;3646;31
2021/07/06 15:08:34;0.00;0.00;0.62;0.00;0.00;0.62;;;;;27.70;1.00;;;;;;2267745;61;894;-90
2021/07/06 15:55:37;71093.00;0.24;123.65;0.00;0.00;0.62;;;;;26.80;1.00;;;;;;2270584;61;1017;-90
2021/07/06 15:58:04;24030.00;0.08;42.25;0.00;0.00;0.62;;;;;27.00;1.00;;;;;;2268533;61;1022;-89
2021/07/06 16:00:31;6916.00;0.02;12.61;0.00;0.00;0.62;;;;;26.90;1.00;;;;;;2264765;61;927;-90
2021/07/06 16:02:58;74151.00;0.25;128.93;0.00;0.00;0.62;;;;;27.30;1.00;;;;;;2261419;61;1368;-90
2021/07/06 16:05:25;0.00;0.00;0.62;0.00;0.00;0.62;;;;;27.50;1.00;;;;;;2259902;61;1938;-91
2021/07/06 16:07:52;0.00;0.00;0.62;0.00;0.00;0.62;;;;;27.40;1.00;;;;;;2253323;61;965;-90
2021/07/06 16:10:20;52205.00;0.17;91.00;0.00;0.00;0.62;;;;;27.50;1.00;;;;;;2253371;61;1010;-91